sensor_id;sensor_type;location;lat;lon;timestamp;P1;durP1;ratioP1;P2;durP2;ratioP2
55170;SDS011;41060;47.510;8.680;2022-09-30T00:02:22;2.63;;;1.88;;
55170;SDS011;41060;47.510;8.680;2022-09-30T00:04:50;2.47;;;1.45;;
55170;SDS011;41060;47.510;8.680;2022-09-30T00:07:16;2.50;;;1.90;;
55170;SDS011;41060;47.510;8.680;2022-09-30T00:09:46;3.20;;;2.13;;
55170;SDS011;41060;47.510;8.680;2022-09-30T00:12:13;4.57;;;2.65;;
55170;SDS011;41060;47.510;8.680;2022-09-30T00:14:43;2.63;;;2.00;;
55170;SDS011;41060;47.510;8.680;2022-09-30T00:17:09;7.57;;;2.28;;
55170;SDS011;41060;47.510;8.680;2022-09-30T00:19:37;2.33;;;1.55;;
55170;SDS011;41060;47.510;8.680;2022-09-30T00:22:04;3.42;;;2.55;;
55170;SDS011;41060;47.510;8.680;2022-09-30T00:24:30;6.05;;;1.77;;
55170;SDS011;41060;47.510;8.680;2022-09-30T00:26:59;2.92;;;2.13;;
55170;SDS011;41060;47.510;8.680;2022-09-30T00:29:26;1.88;;;1.33;;
55170;SDS011;41060;47.510;8.680;2022-09-30T00:31:54;2.13;;;1.83;;
55170;SDS011;41060;47.510;8.680;2022-09-30T00:34:21;3.50;;;2.10;;
55170;SDS011;41060;47.510;8.680;2022-09-30T00:36:49;3.47;;;2.33;;
55170;SDS011;41060;47.510;8.680;2022-09-30T00:39:17;5.18;;;2.22;;
55170;SDS011;41060;47.510;8.680;2022-09-30T00:41:46;3.22;;;1.80;;
55170;SDS011;41060;47.510;8.680;2022-09-30T00:47:30;3.78;;;1.45;;
55170;SDS011;41060;47.510;8.680;2022-09-30T00:50:19;4.00;;;1.55;;
55170;SDS011;41060;47.510;8.680;2022-09-30T00:52:51;2.38;;;2.17;;
55170;SDS011;41060;47.510;8.680;2022-09-30T00:55:26;3.75;;;1.92;;
55170;SDS011;41060;47.510;8.680;2022-09-30T00:57:59;2.38;;;1.95;;
55170;SDS011;41060;47.510;8.680;2022-09-30T01:00:28;2.45;;;1.63;;
55170;SDS011;41060;47.510;8.680;2022-09-30T01:02:57;2.50;;;1.67;;
55170;SDS011;41060;47.510;8.680;2022-09-30T01:05:24;4.70;;;2.47;;
55170;SDS011;41060;47.510;8.680;2022-09-30T01:07:52;2.05;;;1.60;;
55170;SDS011;41060;47.510;8.680;2022-09-30T01:10:21;2.15;;;1.45;;
55170;SDS011;41060;47.510;8.680;2022-09-30T01:12:49;3.38;;;2.33;;
55170;SDS011;41060;47.510;8.680;2022-09-30T01:15:19;2.15;;;1.45;;
55170;SDS011;41060;47.510;8.680;2022-09-30T01:17:52;4.65;;;2.00;;
55170;SDS011;41060;47.510;8.680;2022-09-30T01:20:46;2.25;;;1.50;;
55170;SDS011;41060;47.510;8.680;2022-09-30T01:23:43;5.10;;;2.45;;
55170;SDS011;41060;47.510;8.680;2022-09-30T01:29:36;2.45;;;2.00;;
55170;SDS011;41060;47.510;8.680;2022-09-30T01:32:20;3.60;;;2.22;;
55170;SDS011;41060;47.510;8.680;2022-09-30T01:35:01;3.33;;;2.35;;
55170;SDS011;41060;47.510;8.680;2022-09-30T01:37:38;3.92;;;2.08;;
55170;SDS011;41060;47.510;8.680;2022-09-30T01:40:12;3.55;;;1.77;;
55170;SDS011;41060;47.510;8.680;2022-09-30T01:42:48;4.00;;;2.50;;
55170;SDS011;41060;47.510;8.680;2022-09-30T01:45:24;3.35;;;2.20;;
55170;SDS011;41060;47.510;8.680;2022-09-30T01:48:01;4.07;;;2.40;;
55170;SDS011;41060;47.510;8.680;2022-09-30T01:50:31;3.30;;;2.13;;
55170;SDS011;41060;47.510;8.680;2022-09-30T01:53:09;5.68;;;2.83;;
55170;SDS011;41060;47.510;8.680;2022-09-30T01:55:46;5.18;;;2.65;;
55170;SDS011;41060;47.510;8.680;2022-09-30T01:58:20;4.60;;;2.60;;
55170;SDS011;41060;47.510;8.680;2022-09-30T02:00:52;4.13;;;2.83;;
55170;SDS011;41060;47.510;8.680;2022-09-30T02:03:26;4.78;;;2.88;;
55170;SDS011;41060;47.510;8.680;2022-09-30T02:05:59;3.47;;;2.08;;
55170;SDS011;41060;47.510;8.680;2022-09-30T02:08:30;5.75;;;3.08;;
55170;SDS011;41060;47.510;8.680;2022-09-30T02:11:04;4.95;;;2.05;;
55170;SDS011;41060;47.510;8.680;2022-09-30T02:13:37;3.92;;;2.85;;
55170;SDS011;41060;47.510;8.680;2022-09-30T02:16:10;3.28;;;2.10;;
55170;SDS011;41060;47.510;8.680;2022-09-30T02:18:44;4.88;;;2.58;;
55170;SDS011;41060;47.510;8.680;2022-09-30T02:21:16;6.40;;;2.92;;
55170;SDS011;41060;47.510;8.680;2022-09-30T02:23:46;3.53;;;2.38;;
55170;SDS011;41060;47.510;8.680;2022-09-30T02:26:20;5.57;;;3.05;;
55170;SDS011;41060;47.510;8.680;2022-09-30T02:28:51;3.60;;;2.95;;
55170;SDS011;41060;47.510;8.680;2022-09-30T02:31:25;6.10;;;1.98;;
55170;SDS011;41060;47.510;8.680;2022-09-30T02:33:56;4.95;;;2.97;;
55170;SDS011;41060;47.510;8.680;2022-09-30T02:36:30;5.53;;;2.55;;
55170;SDS011;41060;47.510;8.680;2022-09-30T02:39:04;5.50;;;3.30;;
55170;SDS011;41060;47.510;8.680;2022-09-30T02:41:36;3.05;;;2.25;;
55170;SDS011;41060;47.510;8.680;2022-09-30T02:44:09;5.38;;;3.05;;
55170;SDS011;41060;47.510;8.680;2022-09-30T02:46:40;4.10;;;2.55;;
55170;SDS011;41060;47.510;8.680;2022-09-30T02:49:15;4.90;;;3.17;;
55170;SDS011;41060;47.510;8.680;2022-09-30T02:51:52;4.43;;;2.35;;
55170;SDS011;41060;47.510;8.680;2022-09-30T02:54:29;5.72;;;2.40;;
55170;SDS011;41060;47.510;8.680;2022-09-30T02:57:02;4.60;;;2.72;;
55170;SDS011;41060;47.510;8.680;2022-09-30T02:59:41;3.97;;;2.95;;
55170;SDS011;41060;47.510;8.680;2022-09-30T03:02:09;4.57;;;2.75;;
55170;SDS011;41060;47.510;8.680;2022-09-30T03:04:37;4.57;;;2.60;;
55170;SDS011;41060;47.510;8.680;2022-09-30T03:07:06;4.78;;;3.03;;
55170;SDS011;41060;47.510;8.680;2022-09-30T03:09:38;4.72;;;3.30;;
55170;SDS011;41060;47.510;8.680;2022-09-30T03:12:07;4.63;;;2.58;;
55170;SDS011;41060;47.510;8.680;2022-09-30T03:14:46;4.25;;;2.70;;
55170;SDS011;41060;47.510;8.680;2022-09-30T03:17:29;3.50;;;2.63;;
55170;SDS011;41060;47.510;8.680;2022-09-30T03:20:21;4.33;;;2.67;;
55170;SDS011;41060;47.510;8.680;2022-09-30T03:23:03;3.30;;;2.70;;
55170;SDS011;41060;47.510;8.680;2022-09-30T03:25:53;4.35;;;2.60;;
55170;SDS011;41060;47.510;8.680;2022-09-30T03:28:32;5.30;;;2.72;;
55170;SDS011;41060;47.510;8.680;2022-09-30T03:31:04;4.22;;;2.20;;
55170;SDS011;41060;47.510;8.680;2022-09-30T03:33:42;6.10;;;2.50;;
55170;SDS011;41060;47.510;8.680;2022-09-30T03:36:21;3.38;;;2.85;;
55170;SDS011;41060;47.510;8.680;2022-09-30T03:38:56;7.57;;;2.83;;
55170;SDS011;41060;47.510;8.680;2022-09-30T03:41:29;5.72;;;3.67;;
55170;SDS011;41060;47.510;8.680;2022-09-30T03:44:03;3.40;;;2.20;;
55170;SDS011;41060;47.510;8.680;2022-09-30T03:46:37;4.93;;;3.00;;
55170;SDS011;41060;47.510;8.680;2022-09-30T03:49:07;4.75;;;3.13;;
55170;SDS011;41060;47.510;8.680;2022-09-30T03:51:40;3.72;;;2.75;;
55170;SDS011;41060;47.510;8.680;2022-09-30T03:54:07;5.88;;;2.88;;
55170;SDS011;41060;47.510;8.680;2022-09-30T03:56:36;3.97;;;2.60;;
55170;SDS011;41060;47.510;8.680;2022-09-30T03:59:07;5.43;;;3.28;;
55170;SDS011;41060;47.510;8.680;2022-09-30T04:01:35;6.20;;;3.58;;
55170;SDS011;41060;47.510;8.680;2022-09-30T04:04:03;4.30;;;2.78;;
55170;SDS011;41060;47.510;8.680;2022-09-30T04:06:30;4.68;;;2.60;;
55170;SDS011;41060;47.510;8.680;2022-09-30T04:08:58;4.50;;;2.67;;
55170;SDS011;41060;47.510;8.680;2022-09-30T04:11:25;5.97;;;3.20;;
55170;SDS011;41060;47.510;8.680;2022-09-30T04:13:52;4.88;;;3.60;;
55170;SDS011;41060;47.510;8.680;2022-09-30T04:16:19;5.65;;;2.83;;
55170;SDS011;41060;47.510;8.680;2022-09-30T04:18:46;5.47;;;3.17;;
55170;SDS011;41060;47.510;8.680;2022-09-30T04:21:13;5.55;;;2.80;;
55170;SDS011;41060;47.510;8.680;2022-09-30T04:23:41;6.15;;;3.70;;
55170;SDS011;41060;47.510;8.680;2022-09-30T04:26:11;5.82;;;3.03;;
55170;SDS011;41060;47.510;8.680;2022-09-30T04:28:40;6.03;;;2.83;;
55170;SDS011;41060;47.510;8.680;2022-09-30T04:31:08;6.05;;;3.60;;
55170;SDS011;41060;47.510;8.680;2022-09-30T04:33:36;10.57;;;3.83;;
55170;SDS011;41060;47.510;8.680;2022-09-30T04:36:03;5.57;;;3.03;;
55170;SDS011;41060;47.510;8.680;2022-09-30T04:38:31;4.70;;;3.33;;
55170;SDS011;41060;47.510;8.680;2022-09-30T04:41:00;6.15;;;2.97;;
55170;SDS011;41060;47.510;8.680;2022-09-30T04:43:29;5.22;;;3.22;;
55170;SDS011;41060;47.510;8.680;2022-09-30T04:45:58;6.03;;;3.03;;
55170;SDS011;41060;47.510;8.680;2022-09-30T04:48:25;6.47;;;3.03;;
55170;SDS011;41060;47.510;8.680;2022-09-30T04:50:56;5.97;;;4.13;;
55170;SDS011;41060;47.510;8.680;2022-09-30T04:53:25;5.30;;;4.32;;
55170;SDS011;41060;47.510;8.680;2022-09-30T04:55:56;4.45;;;3.05;;
55170;SDS011;41060;47.510;8.680;2022-09-30T04:58:24;5.50;;;3.70;;
55170;SDS011;41060;47.510;8.680;2022-09-30T05:00:59;7.47;;;3.83;;
55170;SDS011;41060;47.510;8.680;2022-09-30T05:03:27;4.93;;;3.40;;
55170;SDS011;41060;47.510;8.680;2022-09-30T05:05:56;6.65;;;3.35;;
55170;SDS011;41060;47.510;8.680;2022-09-30T05:08:25;8.10;;;3.13;;
55170;SDS011;41060;47.510;8.680;2022-09-30T05:10:53;5.13;;;2.75;;
55170;SDS011;41060;47.510;8.680;2022-09-30T05:13:21;5.43;;;3.35;;
55170;SDS011;41060;47.510;8.680;2022-09-30T05:15:48;6.22;;;3.75;;
55170;SDS011;41060;47.510;8.680;2022-09-30T05:18:18;7.35;;;4.03;;
55170;SDS011;41060;47.510;8.680;2022-09-30T05:20:47;5.22;;;2.97;;
55170;SDS011;41060;47.510;8.680;2022-09-30T05:23:15;6.43;;;3.45;;
55170;SDS011;41060;47.510;8.680;2022-09-30T05:25:42;4.47;;;3.28;;
55170;SDS011;41060;47.510;8.680;2022-09-30T05:28:09;5.00;;;3.22;;
55170;SDS011;41060;47.510;8.680;2022-09-30T05:30:36;7.43;;;3.05;;
55170;SDS011;41060;47.510;8.680;2022-09-30T05:33:04;5.85;;;3.08;;
55170;SDS011;41060;47.510;8.680;2022-09-30T05:35:34;7.05;;;3.88;;
55170;SDS011;41060;47.510;8.680;2022-09-30T05:38:01;5.45;;;3.08;;
55170;SDS011;41060;47.510;8.680;2022-09-30T05:40:29;8.20;;;4.45;;
55170;SDS011;41060;47.510;8.680;2022-09-30T05:42:56;6.40;;;3.60;;
55170;SDS011;41060;47.510;8.680;2022-09-30T05:45:23;4.63;;;2.70;;
55170;SDS011;41060;47.510;8.680;2022-09-30T05:47:50;4.88;;;2.80;;
55170;SDS011;41060;47.510;8.680;2022-09-30T05:50:18;7.38;;;2.85;;
55170;SDS011;41060;47.510;8.680;2022-09-30T05:52:46;6.13;;;3.83;;
55170;SDS011;41060;47.510;8.680;2022-09-30T05:55:14;6.40;;;2.80;;
55170;SDS011;41060;47.510;8.680;2022-09-30T05:57:41;5.30;;;3.10;;
55170;SDS011;41060;47.510;8.680;2022-09-30T06:00:12;5.55;;;3.72;;
55170;SDS011;41060;47.510;8.680;2022-09-30T06:02:40;4.35;;;2.72;;
55170;SDS011;41060;47.510;8.680;2022-09-30T06:05:07;8.00;;;3.55;;
55170;SDS011;41060;47.510;8.680;2022-09-30T06:07:34;4.63;;;2.92;;
55170;SDS011;41060;47.510;8.680;2022-09-30T06:10:05;4.07;;;2.88;;
55170;SDS011;41060;47.510;8.680;2022-09-30T06:12:36;6.95;;;2.90;;
55170;SDS011;41060;47.510;8.680;2022-09-30T06:15:04;6.57;;;3.35;;
55170;SDS011;41060;47.510;8.680;2022-09-30T06:17:31;5.95;;;3.60;;
55170;SDS011;41060;47.510;8.680;2022-09-30T06:19:58;5.97;;;3.17;;
55170;SDS011;41060;47.510;8.680;2022-09-30T06:22:26;7.28;;;4.13;;
55170;SDS011;41060;47.510;8.680;2022-09-30T06:24:53;6.93;;;3.20;;
55170;SDS011;41060;47.510;8.680;2022-09-30T06:27:21;4.40;;;3.00;;
55170;SDS011;41060;47.510;8.680;2022-09-30T06:29:49;7.22;;;3.50;;
55170;SDS011;41060;47.510;8.680;2022-09-30T06:32:16;5.18;;;3.33;;
55170;SDS011;41060;47.510;8.680;2022-09-30T06:34:43;4.25;;;3.03;;
55170;SDS011;41060;47.510;8.680;2022-09-30T06:37:10;5.15;;;3.40;;
55170;SDS011;41060;47.510;8.680;2022-09-30T06:39:37;7.57;;;2.53;;
55170;SDS011;41060;47.510;8.680;2022-09-30T06:42:05;4.03;;;2.83;;
55170;SDS011;41060;47.510;8.680;2022-09-30T06:44:34;5.82;;;2.63;;
55170;SDS011;41060;47.510;8.680;2022-09-30T06:47:01;5.47;;;2.97;;
55170;SDS011;41060;47.510;8.680;2022-09-30T06:49:27;5.18;;;2.97;;
55170;SDS011;41060;47.510;8.680;2022-09-30T06:51:55;4.88;;;3.25;;
55170;SDS011;41060;47.510;8.680;2022-09-30T06:54:24;4.70;;;3.63;;
55170;SDS011;41060;47.510;8.680;2022-09-30T06:56:52;5.68;;;2.60;;
55170;SDS011;41060;47.510;8.680;2022-09-30T06:59:22;4.72;;;2.75;;
55170;SDS011;41060;47.510;8.680;2022-09-30T07:01:50;5.63;;;3.10;;
55170;SDS011;41060;47.510;8.680;2022-09-30T07:04:17;6.03;;;3.25;;
55170;SDS011;41060;47.510;8.680;2022-09-30T07:06:44;4.15;;;2.58;;
55170;SDS011;41060;47.510;8.680;2022-09-30T07:09:11;8.40;;;3.22;;
55170;SDS011;41060;47.510;8.680;2022-09-30T07:11:38;6.63;;;3.78;;
55170;SDS011;41060;47.510;8.680;2022-09-30T07:14:05;7.35;;;3.38;;
55170;SDS011;41060;47.510;8.680;2022-09-30T07:16:33;7.35;;;2.97;;
55170;SDS011;41060;47.510;8.680;2022-09-30T07:19:01;4.72;;;2.40;;
55170;SDS011;41060;47.510;8.680;2022-09-30T07:21:29;6.28;;;3.25;;
55170;SDS011;41060;47.510;8.680;2022-09-30T07:23:56;4.55;;;2.88;;
55170;SDS011;41060;47.510;8.680;2022-09-30T07:26:24;5.10;;;3.00;;
55170;SDS011;41060;47.510;8.680;2022-09-30T07:28:53;5.90;;;3.58;;
55170;SDS011;41060;47.510;8.680;2022-09-30T07:31:21;6.88;;;3.10;;
55170;SDS011;41060;47.510;8.680;2022-09-30T07:33:49;4.57;;;2.55;;
55170;SDS011;41060;47.510;8.680;2022-09-30T07:36:19;4.05;;;2.70;;
55170;SDS011;41060;47.510;8.680;2022-09-30T07:38:51;6.97;;;2.70;;
55170;SDS011;41060;47.510;8.680;2022-09-30T07:41:20;4.13;;;2.63;;
55170;SDS011;41060;47.510;8.680;2022-09-30T07:43:51;4.80;;;2.63;;
55170;SDS011;41060;47.510;8.680;2022-09-30T07:46:21;5.05;;;2.67;;
55170;SDS011;41060;47.510;8.680;2022-09-30T07:48:49;3.90;;;2.22;;
55170;SDS011;41060;47.510;8.680;2022-09-30T07:51:21;4.78;;;2.42;;
55170;SDS011;41060;47.510;8.680;2022-09-30T07:53:50;4.90;;;2.85;;
55170;SDS011;41060;47.510;8.680;2022-09-30T07:56:19;7.30;;;3.45;;
55170;SDS011;41060;47.510;8.680;2022-09-30T07:58:46;4.13;;;2.80;;
55170;SDS011;41060;47.510;8.680;2022-09-30T08:01:14;6.63;;;3.42;;
55170;SDS011;41060;47.510;8.680;2022-09-30T08:03:42;6.32;;;2.75;;
55170;SDS011;41060;47.510;8.680;2022-09-30T08:06:10;4.82;;;2.78;;
55170;SDS011;41060;47.510;8.680;2022-09-30T08:08:43;3.97;;;2.40;;
55170;SDS011;41060;47.510;8.680;2022-09-30T08:11:11;4.53;;;2.58;;
55170;SDS011;41060;47.510;8.680;2022-09-30T08:13:39;5.32;;;2.45;;
55170;SDS011;41060;47.510;8.680;2022-09-30T08:16:06;4.85;;;3.22;;
55170;SDS011;41060;47.510;8.680;2022-09-30T08:18:33;6.05;;;2.67;;
55170;SDS011;41060;47.510;8.680;2022-09-30T08:21:01;3.85;;;2.63;;
55170;SDS011;41060;47.510;8.680;2022-09-30T08:23:29;2.83;;;2.15;;
55170;SDS011;41060;47.510;8.680;2022-09-30T08:26:00;11.75;;;2.85;;
55170;SDS011;41060;47.510;8.680;2022-09-30T08:28:29;4.47;;;2.72;;
55170;SDS011;41060;47.510;8.680;2022-09-30T08:31:02;4.20;;;2.67;;
55170;SDS011;41060;47.510;8.680;2022-09-30T08:36:00;3.75;;;2.88;;
55170;SDS011;41060;47.510;8.680;2022-09-30T08:38:28;4.82;;;2.72;;
55170;SDS011;41060;47.510;8.680;2022-09-30T08:40:57;9.82;;;3.50;;
55170;SDS011;41060;47.510;8.680;2022-09-30T08:43:38;5.10;;;3.20;;
55170;SDS011;41060;47.510;8.680;2022-09-30T08:46:14;6.15;;;2.55;;
55170;SDS011;41060;47.510;8.680;2022-09-30T08:48:49;4.43;;;2.63;;
55170;SDS011;41060;47.510;8.680;2022-09-30T08:51:24;4.88;;;3.33;;
55170;SDS011;41060;47.510;8.680;2022-09-30T08:53:56;5.53;;;2.80;;
55170;SDS011;41060;47.510;8.680;2022-09-30T08:56:29;5.45;;;3.30;;
55170;SDS011;41060;47.510;8.680;2022-09-30T08:59:02;4.90;;;2.63;;
55170;SDS011;41060;47.510;8.680;2022-09-30T09:01:32;3.58;;;2.38;;
55170;SDS011;41060;47.510;8.680;2022-09-30T09:04:01;5.47;;;2.75;;
55170;SDS011;41060;47.510;8.680;2022-09-30T09:06:32;4.03;;;2.13;;
55170;SDS011;41060;47.510;8.680;2022-09-30T09:09:15;5.50;;;2.50;;
55170;SDS011;41060;47.510;8.680;2022-09-30T09:12:00;4.85;;;2.40;;
55170;SDS011;41060;47.510;8.680;2022-09-30T09:14:37;9.30;;;2.90;;
55170;SDS011;41060;47.510;8.680;2022-09-30T09:17:13;4.78;;;2.85;;
55170;SDS011;41060;47.510;8.680;2022-09-30T09:19:56;2.92;;;2.17;;
55170;SDS011;41060;47.510;8.680;2022-09-30T09:22:28;6.25;;;2.85;;
55170;SDS011;41060;47.510;8.680;2022-09-30T09:24:57;3.05;;;2.38;;
55170;SDS011;41060;47.510;8.680;2022-09-30T09:27:28;4.38;;;2.40;;
55170;SDS011;41060;47.510;8.680;2022-09-30T09:30:04;3.20;;;2.53;;
55170;SDS011;41060;47.510;8.680;2022-09-30T09:32:32;3.08;;;2.10;;
55170;SDS011;41060;47.510;8.680;2022-09-30T09:35:00;7.40;;;2.17;;
55170;SDS011;41060;47.510;8.680;2022-09-30T09:37:39;3.95;;;2.42;;
55170;SDS011;41060;47.510;8.680;2022-09-30T09:40:30;5.53;;;3.25;;
55170;SDS011;41060;47.510;8.680;2022-09-30T09:43:09;3.60;;;2.65;;
55170;SDS011;41060;47.510;8.680;2022-09-30T09:45:45;4.03;;;2.22;;
55170;SDS011;41060;47.510;8.680;2022-09-30T09:48:19;3.08;;;1.88;;
55170;SDS011;41060;47.510;8.680;2022-09-30T09:50:48;5.88;;;2.75;;
55170;SDS011;41060;47.510;8.680;2022-09-30T09:53:45;3.38;;;2.45;;
55170;SDS011;41060;47.510;8.680;2022-09-30T09:56:17;3.15;;;1.85;;
55170;SDS011;41060;47.510;8.680;2022-09-30T10:01:39;10.65;;;2.67;;
55170;SDS011;41060;47.510;8.680;2022-09-30T10:04:09;3.38;;;1.85;;
55170;SDS011;41060;47.510;8.680;2022-09-30T10:06:49;1.85;;;1.65;;
55170;SDS011;41060;47.510;8.680;2022-09-30T10:09:25;4.13;;;1.88;;
55170;SDS011;41060;47.510;8.680;2022-09-30T10:15:10;2.80;;;2.10;;
55170;SDS011;41060;47.510;8.680;2022-09-30T10:17:49;4.15;;;1.90;;
55170;SDS011;41060;47.510;8.680;2022-09-30T10:20:21;4.90;;;1.80;;
55170;SDS011;41060;47.510;8.680;2022-09-30T10:22:59;3.67;;;1.75;;
55170;SDS011;41060;47.510;8.680;2022-09-30T10:25:29;3.42;;;1.70;;
55170;SDS011;41060;47.510;8.680;2022-09-30T10:27:57;2.38;;;1.45;;
55170;SDS011;41060;47.510;8.680;2022-09-30T10:30:34;2.78;;;1.35;;
55170;SDS011;41060;47.510;8.680;2022-09-30T10:33:13;2.45;;;1.45;;
55170;SDS011;41060;47.510;8.680;2022-09-30T10:35:48;1.85;;;1.17;;
55170;SDS011;41060;47.510;8.680;2022-09-30T10:38:19;2.55;;;1.40;;
55170;SDS011;41060;47.510;8.680;2022-09-30T10:40:47;5.47;;;2.08;;
55170;SDS011;41060;47.510;8.680;2022-09-30T10:43:26;2.78;;;1.55;;
55170;SDS011;41060;47.510;8.680;2022-09-30T10:45:58;2.40;;;1.50;;
55170;SDS011;41060;47.510;8.680;2022-09-30T10:48:28;2.40;;;1.40;;
55170;SDS011;41060;47.510;8.680;2022-09-30T10:51:00;1.35;;;0.88;;
55170;SDS011;41060;47.510;8.680;2022-09-30T10:53:29;2.85;;;1.55;;
55170;SDS011;41060;47.510;8.680;2022-09-30T10:55:58;1.98;;;1.30;;
55170;SDS011;41060;47.510;8.680;2022-09-30T10:58:36;1.10;;;0.95;;
55170;SDS011;41060;47.510;8.680;2022-09-30T11:01:13;5.00;;;2.17;;
55170;SDS011;41060;47.510;8.680;2022-09-30T11:03:58;2.75;;;1.70;;
55170;SDS011;41060;47.510;8.680;2022-09-30T11:06:30;3.30;;;1.42;;
55170;SDS011;41060;47.510;8.680;2022-09-30T11:09:01;1.70;;;1.20;;
55170;SDS011;41060;47.510;8.680;2022-09-30T11:11:33;1.02;;;0.77;;
55170;SDS011;41060;47.510;8.680;2022-09-30T11:14:19;1.92;;;1.20;;
55170;SDS011;41060;47.510;8.680;2022-09-30T11:16:59;7.82;;;1.00;;
55170;SDS011;41060;47.510;8.680;2022-09-30T11:19:32;2.83;;;1.48;;
55170;SDS011;41060;47.510;8.680;2022-09-30T11:22:10;2.20;;;1.50;;
55170;SDS011;41060;47.510;8.680;2022-09-30T11:24:48;4.15;;;1.70;;
55170;SDS011;41060;47.510;8.680;2022-09-30T11:27:18;2.55;;;1.42;;
55170;SDS011;41060;47.510;8.680;2022-09-30T11:29:59;1.88;;;1.15;;
55170;SDS011;41060;47.510;8.680;2022-09-30T11:35:30;1.48;;;1.05;;
55170;SDS011;41060;47.510;8.680;2022-09-30T11:38:08;1.90;;;1.37;;
55170;SDS011;41060;47.510;8.680;2022-09-30T11:40:45;1.65;;;1.05;;
55170;SDS011;41060;47.510;8.680;2022-09-30T11:43:22;1.58;;;1.20;;
55170;SDS011;41060;47.510;8.680;2022-09-30T11:48:42;1.23;;;0.80;;
55170;SDS011;41060;47.510;8.680;2022-09-30T11:51:30;1.15;;;0.80;;
55170;SDS011;41060;47.510;8.680;2022-09-30T11:54:07;1.75;;;1.05;;
55170;SDS011;41060;47.510;8.680;2022-09-30T11:56:48;2.50;;;1.05;;
55170;SDS011;41060;47.510;8.680;2022-09-30T11:59:25;1.98;;;1.13;;
55170;SDS011;41060;47.510;8.680;2022-09-30T12:01:56;1.40;;;1.00;;
55170;SDS011;41060;47.510;8.680;2022-09-30T12:04:29;1.92;;;1.00;;
55170;SDS011;41060;47.510;8.680;2022-09-30T12:07:02;2.15;;;1.13;;
55170;SDS011;41060;47.510;8.680;2022-09-30T12:09:34;1.40;;;0.80;;
55170;SDS011;41060;47.510;8.680;2022-09-30T12:12:07;1.00;;;0.80;;
55170;SDS011;41060;47.510;8.680;2022-09-30T12:14:38;0.73;;;0.52;;
55170;SDS011;41060;47.510;8.680;2022-09-30T12:17:19;2.20;;;0.80;;
55170;SDS011;41060;47.510;8.680;2022-09-30T12:22:27;0.73;;;0.60;;
55170;SDS011;41060;47.510;8.680;2022-09-30T12:24:58;1.38;;;0.95;;
55170;SDS011;41060;47.510;8.680;2022-09-30T12:27:28;1.25;;;0.60;;
55170;SDS011;41060;47.510;8.680;2022-09-30T12:30:00;1.90;;;0.77;;
55170;SDS011;41060;47.510;8.680;2022-09-30T12:35:46;0.93;;;0.60;;
55170;SDS011;41060;47.510;8.680;2022-09-30T12:38:38;1.08;;;0.70;;
55170;SDS011;41060;47.510;8.680;2022-09-30T12:41:34;2.10;;;0.70;;
55170;SDS011;41060;47.510;8.680;2022-09-30T12:44:26;0.55;;;0.55;;
55170;SDS011;41060;47.510;8.680;2022-09-30T12:47:14;0.80;;;0.68;;
55170;SDS011;41060;47.510;8.680;2022-09-30T12:49:55;0.85;;;0.47;;
55170;SDS011;41060;47.510;8.680;2022-09-30T12:52:28;0.65;;;0.50;;
55170;SDS011;41060;47.510;8.680;2022-09-30T12:54:58;1.30;;;0.73;;
55170;SDS011;41060;47.510;8.680;2022-09-30T12:57:30;1.55;;;0.88;;
55170;SDS011;41060;47.510;8.680;2022-09-30T13:00:03;1.73;;;1.08;;
55170;SDS011;41060;47.510;8.680;2022-09-30T13:02:39;0.70;;;0.50;;
55170;SDS011;41060;47.510;8.680;2022-09-30T13:08:30;1.35;;;0.70;;
55170;SDS011;41060;47.510;8.680;2022-09-30T13:14:16;3.47;;;0.70;;
55170;SDS011;41060;47.510;8.680;2022-09-30T13:19:50;1.90;;;1.42;;
55170;SDS011;41060;47.510;8.680;2022-09-30T13:25:22;2.00;;;1.13;;
55170;SDS011;41060;47.510;8.680;2022-09-30T13:27:51;1.40;;;0.73;;
55170;SDS011;41060;47.510;8.680;2022-09-30T13:30:35;3.15;;;0.70;;
55170;SDS011;41060;47.510;8.680;2022-09-30T13:36:15;0.75;;;0.45;;
55170;SDS011;41060;47.510;8.680;2022-09-30T13:39:04;1.15;;;0.65;;
55170;SDS011;41060;47.510;8.680;2022-09-30T13:41:49;3.28;;;0.90;;
55170;SDS011;41060;47.510;8.680;2022-09-30T13:44:25;0.60;;;0.35;;
55170;SDS011;41060;47.510;8.680;2022-09-30T13:49:32;1.17;;;0.60;;
55170;SDS011;41060;47.510;8.680;2022-09-30T13:52:13;1.52;;;0.50;;
55170;SDS011;41060;47.510;8.680;2022-09-30T13:54:46;0.95;;;0.60;;
55170;SDS011;41060;47.510;8.680;2022-09-30T13:57:17;0.50;;;0.35;;
55170;SDS011;41060;47.510;8.680;2022-09-30T13:59:51;0.90;;;0.70;;
55170;SDS011;41060;47.510;8.680;2022-09-30T14:02:43;3.25;;;0.77;;
55170;SDS011;41060;47.510;8.680;2022-09-30T14:11:17;0.95;;;0.70;;
55170;SDS011;41060;47.510;8.680;2022-09-30T14:14:03;1.88;;;0.80;;
55170;SDS011;41060;47.510;8.680;2022-09-30T14:19:55;1.08;;;0.70;;
55170;SDS011;41060;47.510;8.680;2022-09-30T14:22:34;0.80;;;0.63;;
55170;SDS011;41060;47.510;8.680;2022-09-30T14:25:01;1.48;;;1.05;;
55170;SDS011;41060;47.510;8.680;2022-09-30T14:27:32;6.53;;;0.95;;
55170;SDS011;41060;47.510;8.680;2022-09-30T14:30:13;1.30;;;0.80;;
55170;SDS011;41060;47.510;8.680;2022-09-30T14:32:44;3.05;;;1.30;;
55170;SDS011;41060;47.510;8.680;2022-09-30T14:35:14;0.88;;;0.60;;
55170;SDS011;41060;47.510;8.680;2022-09-30T14:37:44;0.98;;;0.60;;
55170;SDS011;41060;47.510;8.680;2022-09-30T14:40:17;1.40;;;0.70;;
55170;SDS011;41060;47.510;8.680;2022-09-30T14:42:46;2.58;;;1.08;;
55170;SDS011;41060;47.510;8.680;2022-09-30T14:45:19;1.10;;;0.70;;
55170;SDS011;41060;47.510;8.680;2022-09-30T14:47:52;0.98;;;0.70;;
55170;SDS011;41060;47.510;8.680;2022-09-30T14:50:23;1.10;;;0.63;;
55170;SDS011;41060;47.510;8.680;2022-09-30T14:52:52;0.82;;;0.60;;
55170;SDS011;41060;47.510;8.680;2022-09-30T14:55:27;1.05;;;0.85;;
55170;SDS011;41060;47.510;8.680;2022-09-30T15:00:47;0.80;;;0.50;;
55170;SDS011;41060;47.510;8.680;2022-09-30T15:03:16;0.63;;;0.35;;
55170;SDS011;41060;47.510;8.680;2022-09-30T15:05:43;1.00;;;0.60;;
55170;SDS011;41060;47.510;8.680;2022-09-30T15:08:10;2.35;;;0.63;;
55170;SDS011;41060;47.510;8.680;2022-09-30T15:10:38;0.73;;;0.60;;
55170;SDS011;41060;47.510;8.680;2022-09-30T15:13:12;1.05;;;0.55;;
55170;SDS011;41060;47.510;8.680;2022-09-30T15:15:40;0.80;;;0.50;;
55170;SDS011;41060;47.510;8.680;2022-09-30T15:23:40;0.85;;;0.52;;
55170;SDS011;41060;47.510;8.680;2022-09-30T15:26:10;0.85;;;0.43;;
55170;SDS011;41060;47.510;8.680;2022-09-30T15:28:38;0.75;;;0.52;;
55170;SDS011;41060;47.510;8.680;2022-09-30T15:31:05;2.20;;;0.43;;
55170;SDS011;41060;47.510;8.680;2022-09-30T15:33:45;1.27;;;0.60;;
55170;SDS011;41060;47.510;8.680;2022-09-30T15:36:13;1.00;;;0.50;;
55170;SDS011;41060;47.510;8.680;2022-09-30T15:38:45;1.05;;;0.60;;
55170;SDS011;41060;47.510;8.680;2022-09-30T15:41:13;0.73;;;0.40;;
55170;SDS011;41060;47.510;8.680;2022-09-30T15:43:41;1.20;;;0.60;;
55170;SDS011;41060;47.510;8.680;2022-09-30T15:46:21;0.70;;;0.60;;
55170;SDS011;41060;47.510;8.680;2022-09-30T15:48:53;1.67;;;0.90;;
55170;SDS011;41060;47.510;8.680;2022-09-30T15:51:22;2.10;;;0.60;;
55170;SDS011;41060;47.510;8.680;2022-09-30T15:53:51;2.72;;;0.45;;
55170;SDS011;41060;47.510;8.680;2022-09-30T15:56:21;1.48;;;0.68;;
55170;SDS011;41060;47.510;8.680;2022-09-30T15:58:54;0.75;;;0.45;;
55170;SDS011;41060;47.510;8.680;2022-09-30T16:01:22;0.40;;;0.30;;
55170;SDS011;41060;47.510;8.680;2022-09-30T16:03:53;0.65;;;0.45;;
55170;SDS011;41060;47.510;8.680;2022-09-30T16:06:23;0.70;;;0.60;;
55170;SDS011;41060;47.510;8.680;2022-09-30T16:08:54;4.43;;;0.60;;
55170;SDS011;41060;47.510;8.680;2022-09-30T16:11:27;0.82;;;0.52;;
55170;SDS011;41060;47.510;8.680;2022-09-30T16:14:03;1.63;;;0.93;;
55170;SDS011;41060;47.510;8.680;2022-09-30T16:16:33;3.08;;;1.40;;
55170;SDS011;41060;47.510;8.680;2022-09-30T16:19:03;0.85;;;0.43;;
55170;SDS011;41060;47.510;8.680;2022-09-30T16:21:38;0.57;;;0.40;;